Time;durP1;ratioP1;P1;durP2;ratioP2;P2;SDS_P1;SDS_P2;PMS_P1;PMS_P2;Temp;Humidity;BMP_temperature;BMP_pressure;BME280_temperature;BME280_humidity;BME280_pressure;Samples;Min_cycle;Max_cycle;Signal;HPM_P1;HPM_P2
2023/01/16 00:01:59;;;;;;;1.30;0.80;;;4.40;99.90;;;;;;5075299;28;20752;-70
2023/01/16 00:04:25;;;;;;;2.43;1.30;;;4.50;99.90;;;;;;5075148;28;20174;-70
2023/01/16 00:06:51;;;;;;;2.40;1.30;;;4.60;99.90;;;;;;5075067;28;20483;-70
2023/01/16 00:09:18;;;;;;;1.10;1.00;;;4.60;99.90;;;;;;5075015;28;20404;-70
2023/01/16 00:11:44;;;;;;;3.37;1.00;;;4.70;99.90;;;;;;5075207;28;20426;-69
2023/01/16 00:14:09;;;;;;;3.03;1.10;;;4.70;99.90;;;;;;5056614;28;20417;-70
2023/01/16 00:16:35;;;;;;;1.50;0.90;;;4.90;99.90;;;;;;5075279;28;20438;-70
2023/01/16 00:19:01;;;;;;;2.20;1.00;;;4.80;99.90;;;;;;5074957;28;20166;-69
2023/01/16 00:21:27;;;;;;;2.07;1.20;;;4.90;99.90;;;;;;5074979;28;20312;-70
2023/01/16 00:23:53;;;;;;;3.97;1.40;;;5.00;99.90;;;;;;5075052;28;20249;-70
2023/01/16 00:26:19;;;;;;;3.20;1.43;;;4.90;99.90;;;;;;5074840;28;20404;-70
2023/01/16 00:28:44;;;;;;;5.60;1.20;;;5.10;99.90;;;;;;5073898;28;20424;-70
2023/01/16 00:31:11;;;;;;;6.10;1.17;;;5.10;99.90;;;;;;5074735;28;20686;-69
2023/01/16 00:33:37;;;;;;;1.47;1.00;;;5.20;99.90;;;;;;5075116;28;20162;-70
2023/01/16 00:36:03;;;;;;;2.17;0.93;;;5.20;99.90;;;;;;5074537;28;20447;-70
2023/01/16 00:38:29;;;;;;;2.73;1.10;;;5.10;99.90;;;;;;5074564;28;20399;-70
2023/01/16 00:40:54;;;;;;;1.33;0.80;;;5.10;99.90;;;;;;5074640;28;20815;-69
2023/01/16 00:43:20;;;;;;;2.60;1.03;;;5.10;99.90;;;;;;5073935;28;20922;-69
2023/01/16 00:45:45;;;;;;;3.70;1.33;;;5.10;99.90;;;;;;5056352;28;20166;-69
2023/01/16 00:48:11;;;;;;;2.27;1.20;;;5.00;99.90;;;;;;5074292;28;20166;-70
2023/01/16 00:50:37;;;;;;;3.47;1.17;;;5.00;99.90;;;;;;5074145;28;20541;-70
2023/01/16 00:53:02;;;;;;;1.33;0.90;;;5.20;99.90;;;;;;5074040;28;20220;-70
2023/01/16 00:55:28;;;;;;;2.40;1.10;;;5.10;99.90;;;;;;5073953;28;20261;-69
2023/01/16 00:57:53;;;;;;;2.90;1.30;;;5.10;99.90;;;;;;5072963;28;20170;-70
2023/01/16 01:00:21;;;;;;;3.40;1.30;;;5.00;99.90;;;;;;5074381;28;20158;-69
2023/01/16 01:02:48;;;;;;;1.23;0.83;;;4.90;99.90;;;;;;5074834;28;20162;-70
2023/01/16 01:05:13;;;;;;;2.27;1.10;;;4.90;99.90;;;;;;5073044;28;20420;-70
2023/01/16 01:07:39;;;;;;;4.43;1.43;;;4.80;99.90;;;;;;5074270;28;20407;-69
2023/01/16 01:10:05;;;;;;;2.43;1.10;;;4.70;99.90;;;;;;5055914;28;20173;-70
2023/01/16 01:12:30;;;;;;;2.50;0.80;;;4.60;99.90;;;;;;5073453;28;20232;-70
2023/01/16 01:14:56;;;;;;;4.83;1.20;;;4.50;99.90;;;;;;5073824;28;20225;-70
2023/01/16 01:17:21;;;;;;;3.53;1.00;;;4.40;99.90;;;;;;5073655;28;20218;-69
2023/01/16 01:19:47;;;;;;;3.37;1.20;;;4.40;99.90;;;;;;5073613;28;20162;-70
2023/01/16 01:22:15;;;;;;;1.27;0.90;;;4.40;99.90;;;;;;5075861;28;20186;-70
2023/01/16 01:24:41;;;;;;;4.63;1.30;;;4.40;99.90;;;;;;5073898;28;20575;-70
2023/01/16 01:27:06;;;;;;;1.93;0.70;;;4.50;99.90;;;;;;5074463;28;20400;-70
2023/01/16 01:29:32;;;;;;;6.03;1.30;;;4.40;99.90;;;;;;5073030;28;20260;-70
2023/01/16 01:31:58;;;;;;;2.30;1.50;;;4.40;99.90;;;;;;5073562;28;20194;-70
2023/01/16 01:34:23;;;;;;;3.20;0.97;;;4.40;99.90;;;;;;5055634;28;20169;-70
2023/01/16 01:36:49;;;;;;;2.50;1.57;;;4.40;99.90;;;;;;5072894;28;20532;-70
2023/01/16 01:39:14;;;;;;;1.70;1.23;;;4.40;99.90;;;;;;5072749;28;20321;-69
2023/01/16 01:41:40;;;;;;;2.73;1.30;;;4.40;99.90;;;;;;5072655;28;20690;-69
2023/01/16 01:44:44;;;;;;;1.97;0.87;;;4.30;99.90;;;;;;5072421;28;20174;-70
2023/01/16 01:47:10;;;;;;;3.33;1.13;;;4.30;99.90;;;;;;5049638;28;20186;-70
2023/01/16 01:49:37;;;;;;;6.13;1.53;;;4.10;99.90;;;;;;5073111;28;20411;-69
2023/01/16 01:52:05;;;;;;;3.17;1.00;;;4.00;99.90;;;;;;5054272;28;20420;-70
2023/01/16 01:54:36;;;;;;;2.80;1.30;;;4.00;99.90;;;;;;5073174;28;20785;-69
2023/01/16 01:57:11;;;;;;;4.10;0.93;;;3.90;99.90;;;;;;5071953;28;20447;-70
2023/01/16 01:59:42;;;;;;;3.43;1.10;;;4.00;99.90;;;;;;5072606;28;20388;-68
2023/01/16 02:02:13;;;;;;;1.30;0.90;;;4.00;99.90;;;;;;5072814;28;20529;-69
2023/01/16 02:04:42;;;;;;;1.47;1.00;;;4.00;99.90;;;;;;5072811;28;20419;-68
2023/01/16 02:07:11;;;;;;;1.50;1.03;;;4.00;99.90;;;;;;5072319;28;20421;-68
2023/01/16 02:09:37;;;;;;;1.07;0.80;;;4.10;99.90;;;;;;5073119;28;20415;-68
2023/01/16 02:12:07;;;;;;;2.40;1.30;;;4.20;99.90;;;;;;5072858;28;20793;-69
2023/01/16 02:14:37;;;;;;;2.80;0.90;;;4.10;99.90;;;;;;5072405;28;20447;-69
2023/01/16 02:20:08;;;;;;;1.63;1.13;;;4.10;99.90;;;;;;5073905;28;20724;-69
2023/01/16 02:22:59;;;;;;;3.73;1.03;;;4.10;99.90;;;;;;5073222;28;20477;-68
2023/01/16 02:25:51;;;;;;;2.23;1.10;;;3.90;99.90;;;;;;5073854;28;20400;-70
2023/01/16 02:28:35;;;;;;;1.40;1.10;;;3.90;99.90;;;;;;5071192;28;20442;-70
2023/01/16 02:31:06;;;;;;;2.60;1.10;;;3.90;99.90;;;;;;5072875;28;20427;-69
2023/01/16 02:33:57;;;;;;;3.07;1.20;;;4.00;99.90;;;;;;5072392;28;20467;-70
2023/01/16 02:37:00;;;;;;;1.40;0.97;;;3.90;99.90;;;;;;5072622;28;20539;-69
2023/01/16 02:39:45;;;;;;;4.13;1.40;;;4.00;99.90;;;;;;5072901;28;20891;-69
2023/01/16 02:42:36;;;;;;;6.03;2.30;;;4.00;99.90;;;;;;5072553;28;20443;-69
2023/01/16 02:45:22;;;;;;;2.60;1.00;;;4.00;99.90;;;;;;5072101;28;20947;-68
2023/01/16 02:48:03;;;;;;;2.10;1.50;;;4.00;99.90;;;;;;5073111;28;20388;-70
2023/01/16 02:50:59;;;;;;;1.67;0.80;;;4.10;99.90;;;;;;5073222;28;20384;-69
2023/01/16 02:53:35;;;;;;;2.90;1.20;;;4.10;99.90;;;;;;5073480;28;20396;-69
2023/01/16 02:56:08;;;;;;;2.60;1.10;;;4.10;99.90;;;;;;5074150;28;21011;-69
2023/01/16 02:58:39;;;;;;;0.90;0.80;;;4.20;99.90;;;;;;5071614;28;20898;-70
2023/01/16 03:01:06;;;;;;;1.37;1.13;;;4.10;99.90;;;;;;5072778;28;20424;-70
2023/01/16 03:03:58;;;;;;;4.60;1.10;;;4.10;99.90;;;;;;5072821;28;20415;-69
2023/01/16 03:06:51;;;;;;;2.17;1.03;;;4.00;99.90;;;;;;5069638;28;20541;-69
2023/01/16 03:09:31;;;;;;;5.07;1.13;;;4.00;99.90;;;;;;5073108;28;20381;-70
2023/01/16 03:12:03;;;;;;;2.80;1.00;;;4.00;99.90;;;;;;5072476;28;20420;-69
2023/01/16 03:14:35;;;;;;;1.87;1.13;;;3.90;99.90;;;;;;5071872;28;20392;-70
2023/01/16 03:17:21;;;;;;;2.73;0.87;;;3.90;99.90;;;;;;5073064;28;20396;-69
2023/01/16 03:19:59;;;;;;;1.43;0.90;;;3.80;99.90;;;;;;5075790;28;20408;-69
2023/01/16 03:22:31;;;;;;;5.50;1.37;;;3.90;99.90;;;;;;5078423;28;20420;-70
2023/01/16 03:25:19;;;;;;;2.40;1.20;;;4.00;99.90;;;;;;5057892;28;20447;-70
2023/01/16 03:28:00;;;;;;;3.90;1.10;;;3.90;99.90;;;;;;5075593;28;20426;-69
2023/01/16 03:30:36;;;;;;;1.70;1.00;;;4.00;99.90;;;;;;5065332;28;20455;-70
2023/01/16 03:33:07;;;;;;;2.70;1.17;;;3.90;99.90;;;;;;5076108;28;20380;-70
2023/01/16 03:35:38;;;;;;;6.10;1.27;;;3.80;99.90;;;;;;5075815;28;20832;-69
2023/01/16 03:38:07;;;;;;;2.07;0.83;;;3.80;99.90;;;;;;5075559;28;20384;-69
2023/01/16 03:40:38;;;;;;;2.33;1.30;;;3.80;99.90;;;;;;5075512;28;20812;-70
2023/01/16 03:43:07;;;;;;;1.93;1.07;;;3.80;99.90;;;;;;5075482;28;20487;-69
2023/01/16 03:45:44;;;;;;;3.53;1.17;;;3.70;99.90;;;;;;5057293;28;20423;-69
2023/01/16 03:48:33;;;;;;;5.07;1.27;;;3.60;99.90;;;;;;5075426;28;20854;-70
2023/01/16 03:51:06;;;;;;;1.50;0.93;;;3.60;99.90;;;;;;5055972;28;20436;-69
2023/01/16 03:53:37;;;;;;;1.13;1.03;;;3.50;99.90;;;;;;5055439;28;20441;-70
2023/01/16 03:56:08;;;;;;;5.43;1.50;;;3.60;99.90;;;;;;5055473;28;20472;-69
2023/01/16 03:58:38;;;;;;;2.60;0.90;;;3.50;99.90;;;;;;5055526;28;20397;-69
2023/01/16 04:01:22;;;;;;;2.00;1.10;;;3.50;99.90;;;;;;5055318;28;20801;-69
2023/01/16 04:04:09;;;;;;;3.30;1.00;;;3.50;99.90;;;;;;5074353;28;20780;-70
2023/01/16 04:06:37;;;;;;;1.77;0.90;;;3.40;99.90;;;;;;5075650;28;20392;-70
2023/01/16 04:09:10;;;;;;;3.30;1.10;;;3.50;99.90;;;;;;5075073;28;20436;-69
2023/01/16 04:11:39;;;;;;;3.40;1.10;;;3.50;99.90;;;;;;5074780;28;20424;-70
2023/01/16 04:14:09;;;;;;;2.60;1.10;;;3.40;99.90;;;;;;5074750;28;20408;-69
2023/01/16 04:16:36;;;;;;;3.50;1.57;;;3.40;99.90;;;;;;5074061;28;20509;-69
2023/01/16 04:19:03;;;;;;;2.63;1.37;;;3.30;99.90;;;;;;5074303;28;20408;-70
2023/01/16 04:21:31;;;;;;;4.90;1.30;;;3.30;99.90;;;;;;5074440;28;20957;-69
2023/01/16 04:23:58;;;;;;;2.27;1.10;;;3.40;99.90;;;;;;5073964;28;20427;-69
2023/01/16 04:26:24;;;;;;;3.00;1.20;;;3.50;99.90;;;;;;5075111;28;20415;-69
2023/01/16 04:28:54;;;;;;;1.77;1.20;;;3.40;99.90;;;;;;5055695;28;20408;-69
2023/01/16 04:31:24;;;;;;;1.27;0.90;;;3.40;99.90;;;;;;5072772;28;20194;-69
2023/01/16 04:33:50;;;;;;;3.23;1.10;;;3.40;99.90;;;;;;5073932;28;20415;-70
2023/01/16 04:36:16;;;;;;;18.37;1.77;;;3.30;99.90;;;;;;5074077;28;20448;-69
2023/01/16 04:38:41;;;;;;;0.90;0.80;;;3.30;99.90;;;;;;5056082;28;20419;-70
2023/01/16 04:41:07;;;;;;;2.60;1.00;;;3.30;99.90;;;;;;5073697;28;20505;-67
2023/01/16 04:43:33;;;;;;;1.30;1.00;;;3.30;99.90;;;;;;5056347;28;20201;-66
2023/01/16 04:45:58;;;;;;;2.83;1.13;;;3.20;99.90;;;;;;5073284;28;20178;-69
2023/01/16 04:48:24;;;;;;;3.93;1.33;;;3.30;99.90;;;;;;5073912;28;20180;-68
2023/01/16 04:50:49;;;;;;;1.53;0.90;;;3.10;99.90;;;;;;5073754;28;20194;-69
2023/01/16 04:53:15;;;;;;;1.97;0.90;;;3.10;99.90;;;;;;5074479;28;20174;-68
2023/01/16 04:55:41;;;;;;;1.20;0.80;;;3.10;99.90;;;;;;5074740;28;20229;-68
2023/01/16 04:58:06;;;;;;;2.73;0.90;;;3.10;99.90;;;;;;5074144;28;20462;-69
2023/01/16 05:00:32;;;;;;;3.00;1.07;;;3.10;99.90;;;;;;5073576;28;20198;-69
2023/01/16 05:02:58;;;;;;;1.50;0.93;;;3.10;99.90;;;;;;5074440;28;20542;-68
2023/01/16 05:05:24;;;;;;;2.90;1.20;;;3.00;99.90;;;;;;5074335;28;20408;-68
2023/01/16 05:08:15;;;;;;;2.30;1.20;;;3.10;99.90;;;;;;5073965;28;20758;-68
2023/01/16 05:10:35;;;;;;;1.70;0.90;;;3.20;99.90;;;;;;5073945;28;20446;-69
2023/01/16 05:13:01;;;;;;;1.70;1.00;;;3.20;99.90;;;;;;5073845;28;20404;-68
2023/01/16 05:15:27;;;;;;;2.43;1.20;;;3.30;99.90;;;;;;5073058;28;20208;-69
2023/01/16 05:17:54;;;;;;;1.67;1.30;;;3.30;99.90;;;;;;5074066;28;20257;-68
2023/01/16 05:20:19;;;;;;;3.67;1.20;;;3.30;99.90;;;;;;5056019;28;20692;-68
2023/01/16 05:22:45;;;;;;;4.87;1.37;;;3.30;99.90;;;;;;5073728;28;20494;-69
2023/01/16 05:25:10;;;;;;;2.10;1.07;;;3.30;99.90;;;;;;5073633;28;20261;-68
2023/01/16 05:27:36;;;;;;;3.50;1.10;;;3.10;99.90;;;;;;5073938;28;20185;-68
2023/01/16 05:30:02;;;;;;;1.50;1.00;;;3.10;99.90;;;;;;5072081;28;20660;-69
2023/01/16 05:32:28;;;;;;;2.97;1.17;;;3.10;99.90;;;;;;5075834;28;20204;-68
2023/01/16 05:34:53;;;;;;;2.43;1.20;;;3.20;99.90;;;;;;5073807;28;20448;-68
2023/01/16 05:37:19;;;;;;;2.30;1.30;;;3.00;99.90;;;;;;5073306;28;20173;-68
2023/01/16 05:39:46;;;;;;;5.40;1.40;;;3.00;99.90;;;;;;5073070;28;20174;-68
2023/01/16 05:42:20;;;;;;;3.30;1.40;;;3.10;99.90;;;;;;5072176;28;20289;-68
2023/01/16 05:44:48;;;;;;;2.63;1.40;;;3.00;99.90;;;;;;5073308;28;20470;-68
2023/01/16 05:47:13;;;;;;;2.83;1.37;;;3.00;99.90;;;;;;5073017;28;20420;-69
2023/01/16 05:49:39;;;;;;;2.43;1.23;;;2.90;99.90;;;;;;5073071;28;20415;-68
2023/01/16 05:52:04;;;;;;;1.20;1.00;;;2.90;99.90;;;;;;5073207;28;20233;-68
2023/01/16 05:54:30;;;;;;;1.60;1.20;;;2.90;99.90;;;;;;5073066;28;20170;-69
2023/01/16 05:56:56;;;;;;;1.70;1.00;;;2.90;99.90;;;;;;5053974;28;20259;-68
2023/01/16 05:59:21;;;;;;;2.17;1.20;;;3.00;99.90;;;;;;5072339;28;20216;-68
2023/01/16 06:01:47;;;;;;;1.33;1.10;;;3.00;99.90;;;;;;5072234;28;20178;-68
2023/01/16 06:04:12;;;;;;;2.40;1.27;;;3.10;99.90;;;;;;5054732;28;20269;-68
2023/01/16 06:06:38;;;;;;;7.63;1.47;;;3.10;99.90;;;;;;5072710;28;20169;-69
2023/01/16 06:09:03;;;;;;;2.87;1.93;;;3.20;99.90;;;;;;5072850;28;20166;-68
2023/01/16 06:11:29;;;;;;;1.37;1.10;;;3.20;99.90;;;;;;5072856;28;20210;-69
2023/01/16 06:13:55;;;;;;;1.67;1.23;;;3.20;99.90;;;;;;5072986;28;20582;-68
2023/01/16 06:16:22;;;;;;;2.10;1.27;;;3.10;99.90;;;;;;5072578;28;20204;-68
2023/01/16 06:18:48;;;;;;;2.17;1.17;;;3.20;99.90;;;;;;5072206;28;20432;-69
2023/01/16 06:21:14;;;;;;;5.03;1.70;;;3.30;99.90;;;;;;5072835;28;20443;-68
2023/01/16 06:23:40;;;;;;;1.30;1.20;;;3.40;99.90;;;;;;5054473;28;20400;-69
2023/01/16 06:26:09;;;;;;;1.60;1.13;;;3.50;99.90;;;;;;5072531;28;20939;-68
2023/01/16 06:28:38;;;;;;;1.80;1.20;;;3.60;99.90;;;;;;5072590;28;20542;-69
2023/01/16 06:31:05;;;;;;;1.37;1.27;;;3.70;99.90;;;;;;5070635;28;20439;-69
2023/01/16 06:33:30;;;;;;;3.33;1.40;;;3.70;99.90;;;;;;5072594;28;20473;-69
2023/01/16 06:35:56;;;;;;;2.00;1.57;;;3.80;99.90;;;;;;5072455;28;20467;-68
2023/01/16 06:38:22;;;;;;;3.50;1.13;;;3.70;99.90;;;;;;5075035;28;20162;-69
2023/01/16 06:40:47;;;;;;;2.83;1.40;;;3.80;99.90;;;;;;5075172;28;20194;-69
2023/01/16 06:43:15;;;;;;;2.27;1.20;;;3.80;99.90;;;;;;5073062;28;20244;-68
2023/01/16 06:45:40;;;;;;;4.70;1.67;;;3.80;99.90;;;;;;5072328;28;20159;-68
2023/01/16 06:48:06;;;;;;;3.13;1.70;;;3.80;99.90;;;;;;5072746;28;20406;-69
2023/01/16 06:50:31;;;;;;;3.27;1.23;;;3.80;99.90;;;;;;5072431;28;20668;-69
2023/01/16 06:52:57;;;;;;;2.13;1.33;;;3.70;99.90;;;;;;5074748;28;20185;-69
2023/01/16 06:55:23;;;;;;;2.47;1.40;;;3.70;99.90;;;;;;5076123;28;20220;-69
2023/01/16 06:57:48;;;;;;;4.30;1.50;;;3.80;99.90;;;;;;5075378;28;20181;-68
2023/01/16 07:00:14;;;;;;;1.50;1.40;;;3.80;99.90;;;;;;5075663;28;20625;-68
2023/01/16 07:02:40;;;;;;;1.60;1.20;;;3.90;99.90;;;;;;5076630;28;20621;-69
2023/01/16 07:05:10;;;;;;;3.33;1.00;;;3.90;99.90;;;;;;5076154;28;20603;-68
2023/01/16 07:07:36;;;;;;;1.90;1.30;;;3.90;99.90;;;;;;5076636;28;20166;-68
2023/01/16 07:10:02;;;;;;;2.10;1.70;;;4.00;99.90;;;;;;5076382;28;20404;-69
2023/01/16 07:12:28;;;;;;;3.10;1.40;;;3.90;99.90;;;;;;5076429;28;20416;-69
2023/01/16 07:23:26;;;;;;;3.20;1.33;;;4.00;99.90;;;;;;5076396;28;20391;-69
2023/01/16 07:25:53;;;;;;;2.30;1.60;;;4.00;99.90;;;;;;5075973;28;20397;-69
2023/01/16 07:28:20;;;;;;;2.10;1.50;;;4.00;99.90;;;;;;5075705;28;20995;-69
2023/01/16 07:30:46;;;;;;;2.43;1.30;;;4.10;99.90;;;;;;5076775;28;20451;-69
2023/01/16 07:33:12;;;;;;;3.00;1.50;;;4.10;99.90;;;;;;5075759;28;20448;-69
2023/01/16 07:35:38;;;;;;;5.40;2.00;;;4.10;99.90;;;;;;5075808;28;20447;-69
2023/01/16 07:38:04;;;;;;;3.90;2.00;;;4.10;99.90;;;;;;5075688;28;20405;-68
2023/01/16 07:40:29;;;;;;;3.70;1.63;;;4.20;99.90;;;;;;5075348;28;20173;-69
2023/01/16 07:42:55;;;;;;;2.50;1.50;;;4.20;99.90;;;;;;5075575;28;20151;-69
2023/01/16 07:45:20;;;;;;;1.40;1.30;;;4.30;99.90;;;;;;5075295;28;20170;-68
2023/01/16 07:47:46;;;;;;;1.53;1.43;;;4.30;99.90;;;;;;5075209;28;20182;-67
2023/01/16 07:50:11;;;;;;;2.47;1.43;;;4.30;99.90;;;;;;5075383;28;20173;-68
2023/01/16 07:52:37;;;;;;;1.80;1.30;;;4.30;99.90;;;;;;5057396;28;20170;-69
2023/01/16 07:55:03;;;;;;;1.77;1.57;;;4.40;99.90;;;;;;5075218;28;20276;-69
2023/01/16 07:57:28;;;;;;;1.83;1.63;;;4.40;99.90;;;;;;5075570;28;20162;-68
2023/01/16 07:59:54;;;;;;;2.13;1.33;;;4.40;99.90;;;;;;5057193;28;20413;-68
2023/01/16 08:02:20;;;;;;;2.30;1.23;;;4.50;99.90;;;;;;5074356;28;20239;-68
2023/01/16 08:04:46;;;;;;;2.20;1.13;;;4.60;99.90;;;;;;5074198;28;20416;-68
2023/01/16 08:07:11;;;;;;;3.10;1.50;;;4.60;99.90;;;;;;5075223;28;20784;-68
2023/01/16 08:09:37;;;;;;;2.57;1.47;;;4.60;99.90;;;;;;5074966;28;20170;-67
2023/01/16 08:12:03;;;;;;;3.67;1.80;;;4.60;99.90;;;;;;5075165;28;20197;-68
2023/01/16 08:14:29;;;;;;;1.53;1.40;;;4.60;99.90;;;;;;5074762;28;20181;-68
2023/01/16 08:16:54;;;;;;;2.60;1.30;;;4.70;99.90;;;;;;5073882;28;20221;-69
2023/01/16 08:19:20;;;;;;;1.43;1.33;;;4.70;99.90;;;;;;5056579;28;20444;-69
2023/01/16 08:21:45;;;;;;;5.40;1.63;;;4.70;99.90;;;;;;5075254;28;20190;-69
2023/01/16 08:24:13;;;;;;;2.90;1.47;;;4.90;99.90;;;;;;5074502;28;20158;-69
2023/01/16 08:26:39;;;;;;;2.40;1.20;;;5.00;99.90;;;;;;5074527;28;20162;-67
2023/01/16 08:29:05;;;;;;;2.60;1.20;;;5.00;99.90;;;;;;5074603;28;20439;-67
2023/01/16 08:31:31;;;;;;;2.93;1.30;;;5.00;99.90;;;;;;5073314;28;20448;-68
2023/01/16 08:33:57;;;;;;;5.13;2.20;;;5.10;99.90;;;;;;5074749;28;20195;-69
2023/01/16 08:36:23;;;;;;;2.07;1.40;;;5.20;99.90;;;;;;5075059;28;20448;-68
2023/01/16 08:38:49;;;;;;;1.33;1.00;;;5.20;99.90;;;;;;5075138;28;20220;-68
2023/01/16 08:52:34;;;;;;;1.80;1.00;;;5.40;99.90;;;;;;5074523;28;20418;-68
2023/01/16 08:55:00;;;;;;;1.30;1.17;;;5.40;99.90;;;;;;5073812;28;20440;-69
2023/01/16 08:57:29;;;;;;;1.63;1.00;;;5.40;99.90;;;;;;5074618;28;20415;-69
2023/01/16 08:59:56;;;;;;;1.53;1.10;;;5.40;99.90;;;;;;5074195;28;20412;-69
2023/01/16 09:02:22;;;;;;;1.70;1.60;;;5.50;99.90;;;;;;5073808;28;20483;-69
2023/01/16 09:04:48;;;;;;;1.93;1.20;;;5.50;99.90;;;;;;5073568;28;20491;-69
2023/01/16 09:07:15;;;;;;;1.27;1.00;;;5.50;99.90;;;;;;5074051;28;20423;-70
2023/01/16 09:09:41;;;;;;;1.47;1.00;;;5.60;99.90;;;;;;5074384;28;20417;-69
2023/01/16 09:14:56;;;;;;;1.27;0.93;;;5.80;99.90;;;;;;5073608;28;20194;-68
2023/01/16 09:17:24;;;;;;;1.83;0.80;;;5.70;99.90;;;;;;5073672;28;20406;-69
2023/01/16 09:19:49;;;;;;;2.80;1.23;;;5.80;99.90;;;;;;5075301;28;20671;-69
2023/01/16 09:22:15;;;;;;;1.83;1.13;;;6.00;99.90;;;;;;5077110;28;20416;-70
2023/01/16 09:24:40;;;;;;;1.80;0.87;;;6.10;99.90;;;;;;5073996;28;20173;-67
2023/01/16 09:27:06;;;;;;;2.03;1.03;;;6.00;99.90;;;;;;5075861;28;20182;-68
2023/01/16 09:29:32;;;;;;;1.33;0.80;;;6.20;99.90;;;;;;5073535;28;20177;-69
2023/01/16 09:31:58;;;;;;;1.70;1.17;;;6.10;99.90;;;;;;5071866;28;20247;-69
2023/01/16 09:34:24;;;;;;;1.87;0.90;;;6.00;99.90;;;;;;5074169;28;20698;-68
2023/01/16 09:36:50;;;;;;;1.27;0.80;;;6.00;99.90;;;;;;5072590;28;20467;-69
2023/01/16 09:39:17;;;;;;;1.60;0.70;;;6.10;99.90;;;;;;5073853;28;20831;-68
2023/01/16 09:45:15;;;;;;;4.37;1.50;;;6.30;99.90;;;;;;5073728;28;20435;-68
2023/01/16 09:47:45;;;;;;;2.17;1.00;;;6.40;99.90;;;;;;5073938;28;20392;-68
2023/01/16 09:50:28;;;;;;;2.33;0.90;;;6.50;99.90;;;;;;5074106;28;20547;-68
2023/01/16 09:58:35;;;;;;;1.03;0.80;;;6.60;99.90;;;;;;5073770;28;20381;-69
2023/01/16 10:01:10;;;;;;;2.10;1.00;;;6.50;99.90;;;;;;5073757;28;20425;-69
2023/01/16 10:03:42;;;;;;;1.27;0.87;;;6.50;99.90;;;;;;5073392;28;20397;-68
2023/01/16 10:06:23;;;;;;;1.40;0.80;;;6.60;99.90;;;;;;5073331;28;20450;-68
2023/01/16 10:09:23;;;;;;;1.50;0.93;;;6.80;99.90;;;;;;5072682;28;20899;-69
2023/01/16 10:11:54;;;;;;;1.07;0.70;;;6.80;99.90;;;;;;5049094;28;20433;-68
2023/01/16 10:15:02;;;;;;;1.17;0.77;;;6.60;99.90;;;;;;5072392;28;20423;-69
2023/01/16 10:17:43;;;;;;;0.97;0.70;;;6.70;99.90;;;;;;5010971;28;20839;-69
2023/01/16 10:20:27;;;;;;;1.10;1.00;;;6.80;99.90;;;;;;5066497;28;20401;-69
2023/01/16 10:23:18;;;;;;;1.50;0.97;;;6.70;99.90;;;;;;5072768;28;20385;-69
2023/01/16 10:25:59;;;;;;;1.10;0.80;;;6.70;99.90;;;;;;5072469;28;20924;-69
2023/01/16 10:28:57;;;;;;;1.07;0.97;;;6.80;99.90;;;;;;5076096;28;20735;-69
2023/01/16 10:31:45;;;;;;;1.93;1.00;;;6.90;99.90;;;;;;5076046;28;20440;-69
2023/01/16 10:34:20;;;;;;;1.37;0.90;;;7.00;99.90;;;;;;5077365;28;20399;-68
2023/01/16 10:36:51;;;;;;;0.90;0.70;;;7.00;99.90;;;;;;5059230;28;20531;-68
2023/01/16 10:39:19;;;;;;;1.20;0.80;;;6.90;99.90;;;;;;5077960;28;20475;-69
2023/01/16 10:50:15;;;;;;;2.60;1.43;;;7.10;99.90;;;;;;5076804;28;20377;-69
2023/01/16 10:52:42;;;;;;;1.10;0.70;;;7.00;99.90;;;;;;5076549;28;20393;-69
2023/01/16 10:55:08;;;;;;;1.67;1.00;;;7.10;99.90;;;;;;5076625;28;20468;-69
2023/01/16 10:57:36;;;;;;;1.63;1.40;;;7.10;99.90;;;;;;5075559;28;20888;-69
2023/01/16 11:00:11;;;;;;;1.83;1.30;;;7.20;99.90;;;;;;5076453;28;20412;-70
2023/01/16 11:02:43;;;;;;;1.27;0.90;;;7.10;99.90;;;;;;5076401;28;20454;-69
2023/01/16 11:05:33;;;;;;;1.77;1.20;;;7.00;99.90;;;;;;5076558;28;20419;-71
2023/01/16 11:08:19;;;;;;;1.47;1.00;;;7.10;99.90;;;;;;5076205;28;20396;-69
2023/01/16 11:10:47;;;;;;;1.00;0.80;;;7.10;99.90;;;;;;5075819;28;20441;-69
2023/01/16 11:19:14;;;;;;;1.57;0.90;;;7.20;99.90;;;;;;5076543;28;20407;-68
2023/01/16 11:21:43;;;;;;;0.70;0.60;;;7.30;99.90;;;;;;5078956;28;20427;-68
2023/01/16 11:24:16;;;;;;;2.00;0.90;;;7.40;99.90;;;;;;5076506;28;20914;-68
2023/01/16 11:26:52;;;;;;;0.90;0.67;;;7.40;99.90;;;;;;5075938;28;20461;-69
2023/01/16 11:29:20;;;;;;;1.90;0.67;;;7.40;99.90;;;;;;5075678;28;20509;-68
2023/01/16 11:31:54;;;;;;;0.80;0.60;;;7.50;99.90;;;;;;5074639;28;20441;-68
2023/01/16 11:34:21;;;;;;;0.90;0.60;;;7.30;99.90;;;;;;5075840;28;20869;-67
2023/01/16 11:36:47;;;;;;;4.00;1.40;;;7.40;99.90;;;;;;5075609;28;20480;-68
2023/01/16 11:39:22;;;;;;;1.00;0.60;;;7.50;99.90;;;;;;5075591;28;20817;-69
2023/01/16 11:41:51;;;;;;;1.43;0.80;;;7.30;99.90;;;;;;5075856;28;20444;-69
2023/01/16 11:47:22;;;;;;;1.83;0.60;;;7.30;99.90;;;;;;5075558;28;20409;-70
2023/01/16 11:49:53;;;;;;;1.10;0.70;;;7.40;99.90;;;;;;5075564;28;20420;-69
2023/01/16 11:52:27;;;;;;;2.20;0.60;;;7.40;99.90;;;;;;5075900;28;20462;-69
2023/01/16 11:54:58;;;;;;;1.20;0.80;;;7.40;99.90;;;;;;5075811;28;20517;-69
2023/01/16 11:58:02;;;;;;;1.00;0.60;;;7.60;99.90;;;;;;5076375;28;20398;-69
2023/01/16 12:00:53;;;;;;;0.90;0.67;;;7.70;99.90;;;;;;5074218;28;20424;-69
2023/01/16 12:03:56;;;;;;;1.17;0.50;;;7.70;99.90;;;;;;5076322;28;20932;-67
2023/01/16 12:06:27;;;;;;;1.13;0.70;;;7.70;99.90;;;;;;5075183;28;20478;-68
2023/01/16 12:09:25;;;;;;;0.83;0.70;;;7.80;99.90;;;;;;5056742;28;20429;-68
2023/01/16 12:15:06;;;;;;;1.23;0.60;;;8.00;99.90;;;;;;5075616;28;20852;-68
2023/01/16 12:17:39;;;;;;;0.90;0.73;;;7.90;99.90;;;;;;5074675;28;20766;-69
2023/01/16 12:20:30;;;;;;;0.93;0.73;;;7.80;99.90;;;;;;5057186;28;20471;-69
2023/01/16 12:23:17;;;;;;;1.07;0.87;;;8.00;99.90;;;;;;5074206;28;20403;-69
2023/01/16 12:25:55;;;;;;;1.30;0.60;;;7.80;99.90;;;;;;5074836;28;20508;-69
2023/01/16 12:28:23;;;;;;;1.10;0.90;;;7.90;99.90;;;;;;5075126;28;20462;-69
2023/01/16 12:31:34;;;;;;;1.50;1.00;;;8.00;99.90;;;;;;5073400;28;20434;-69
2023/01/16 12:34:27;;;;;;;1.60;1.03;;;7.90;99.90;;;;;;5075074;28;20389;-69
2023/01/16 12:37:24;;;;;;;2.03;1.83;;;8.10;99.90;;;;;;5074966;28;20433;-68
2023/01/16 12:40:11;;;;;;;1.80;1.30;;;8.20;99.90;;;;;;5075410;28;20731;-68
2023/01/16 12:43:23;;;;;;;1.10;0.70;;;8.30;99.90;;;;;;5074709;28;20419;-68
2023/01/16 12:45:55;;;;;;;1.10;0.70;;;8.30;99.90;;;;;;5074499;28;20406;-68
2023/01/16 12:48:40;;;;;;;1.13;0.80;;;8.20;99.90;;;;;;5074417;28;20429;-68
2023/01/16 12:51:55;;;;;;;0.80;0.60;;;8.30;99.90;;;;;;5073480;28;20514;-68
2023/01/16 12:54:32;;;;;;;1.93;1.17;;;8.40;99.90;;;;;;5065308;28;20412;-69
2023/01/16 12:57:22;;;;;;;1.63;0.80;;;8.30;99.90;;;;;;5074284;28;20614;-69
2023/01/16 12:59:53;;;;;;;1.57;0.60;;;8.50;99.90;;;;;;5074303;28;20761;-69
2023/01/16 13:02:22;;;;;;;1.27;0.63;;;8.50;99.90;;;;;;5073707;28;20485;-69
2023/01/16 13:04:54;;;;;;;0.90;0.60;;;8.60;99.90;;;;;;5074405;28;20828;-68
2023/01/16 13:07:20;;;;;;;1.00;0.70;;;8.70;99.90;;;;;;5074557;28;20735;-69
2023/01/16 13:15:38;;;;;;;0.80;0.60;;;8.60;99.90;;;;;;5073852;28;20589;-69
2023/01/16 13:18:17;;;;;;;1.60;0.80;;;8.80;99.90;;;;;;5073403;28;20419;-69
2023/01/16 13:20:45;;;;;;;1.47;0.50;;;8.60;99.90;;;;;;5075415;28;20789;-69
2023/01/16 13:23:19;;;;;;;1.07;0.60;;;8.80;99.90;;;;;;5055795;28;20420;-69
2023/01/16 13:25:47;;;;;;;1.57;0.90;;;8.80;99.90;;;;;;5073967;28;20754;-69
2023/01/16 13:28:38;;;;;;;1.50;0.80;;;9.00;99.90;;;;;;5073559;28;20436;-70
2023/01/16 13:31:14;;;;;;;1.20;0.60;;;9.00;99.90;;;;;;5072113;28;20442;-69
2023/01/16 13:33:43;;;;;;;1.00;0.77;;;9.00;99.90;;;;;;5073520;28;20401;-69
2023/01/16 13:36:27;;;;;;;0.80;0.50;;;8.90;99.90;;;;;;5073844;28;20431;-69
2023/01/16 13:39:11;;;;;;;0.90;0.60;;;9.10;99.90;;;;;;5073716;28;20432;-69
2023/01/16 13:41:45;;;;;;;3.70;0.70;;;9.20;99.90;;;;;;5073098;28;20451;-70
2023/01/16 13:47:15;;;;;;;0.97;0.60;;;9.40;99.90;;;;;;5073332;28;20389;-69
2023/01/16 13:49:47;;;;;;;1.70;1.10;;;9.10;99.90;;;;;;5073242;28;20419;-68
2023/01/16 13:52:26;;;;;;;1.70;1.07;;;8.90;99.90;;;;;;5073175;28;20871;-69
2023/01/16 13:54:55;;;;;;;2.83;1.10;;;8.90;99.90;;;;;;5073266;28;20457;-69
2023/01/16 13:57:22;;;;;;;1.20;0.90;;;8.90;99.90;;;;;;5073568;28;20397;-69
2023/01/16 13:59:53;;;;;;;1.73;1.37;;;8.90;99.90;;;;;;5073133;28;20412;-70
2023/01/16 14:02:23;;;;;;;2.50;0.67;;;8.80;99.90;;;;;;5071908;28;20426;-68
2023/01/16 14:05:14;;;;;;;0.70;0.50;;;8.80;99.90;;;;;;5072955;28;20882;-68
2023/01/16 14:11:02;;;;;;;0.80;0.60;;;8.60;99.90;;;;;;5073284;28;20442;-69
2023/01/16 14:13:38;;;;;;;0.70;0.50;;;8.60;99.90;;;;;;5073340;28;20388;-69
2023/01/16 14:16:33;;;;;;;0.90;0.60;;;8.60;99.90;;;;;;5072802;28;20446;-69
2023/01/16 14:19:22;;;;;;;1.27;0.60;;;8.70;99.90;;;;;;5074198;28;20884;-69
2023/01/16 14:24:46;;;;;;;0.70;0.50;;;8.60;99.90;;;;;;5073768;28;20877;-69
2023/01/16 14:27:15;;;;;;;1.43;0.50;;;8.50;99.90;;;;;;5074292;28;20380;-69
2023/01/16 14:29:59;;;;;;;0.80;0.60;;;8.30;99.90;;;;;;5073266;28;20409;-68
2023/01/16 14:32:27;;;;;;;0.70;0.50;;;8.30;99.90;;;;;;5053668;28;20449;-68